Time,TemperatureF,DewpointF,PressureIn,WindDirection,WindDirectionDegrees,WindSpeedMPH,WindSpeedGustMPH,Humidity,HourlyPrecipIn,Conditions,Clouds,dailyrainin,SolarRadiationWatts/m^2,SoftwareType,DateUTC
2013-04-06 00:01:00,33.5,18.6,29.84,North,1,9.0,16.0,54,0.00,,CLR,0.00,0.00,VWS V14.01,2013-04-06 04:01:00,
2013-04-06 00:10:00,33.4,18.1,29.84,NW,323,4.0,13.0,53,0.00,,CLR,0.00,0.00,VWS V14.01,2013-04-06 04:10:00,
2013-04-06 00:20:00,32.9,17.7,29.85,WNW,300,1.0,12.0,53,0.00,,CLR,0.00,0.00,VWS V14.01,2013-04-06 04:20:00,
2013-04-06 00:31:00,32.8,16.7,29.85,NW,321,2.0,16.0,51,0.00,,CLR,0.00,0.00,VWS V14.01,2013-04-06 04:31:00,
2013-04-06 00:41:00,32.5,15.5,29.85,NNW,348,4.0,15.0,49,0.00,,CLR,0.00,0.00,VWS V14.01,2013-04-06 04:41:00,
2013-04-06 00:51:00,32.4,14.4,29.86,North,0,10.0,12.0,47,0.00,,CLR,0.00,0.00,VWS V14.01,2013-04-06 04:51:00,
2013-04-06 01:01:00,32.2,13.8,29.87,North,2,11.0,16.0,46,0.00,,CLR,0.00,0.00,VWS V14.01,2013-04-06 05:01:00,
2013-04-06 01:11:00,31.9,13.0,29.87,North,8,9.0,18.0,45,0.00,,CLR,0.00,0.00,VWS V14.01,2013-04-06 05:11:00,
2013-04-06 01:21:00,31.8,13.4,29.87,WNW,288,11.0,16.0,46,0.00,,CLR,0.00,0.00,VWS V14.01,2013-04-06 05:21:00,
2013-04-06 01:30:00,31.6,13.7,29.88,West,277,8.0,21.0,47,0.00,,CLR,0.00,0.00,VWS V14.01,2013-04-06 05:30:00,
2013-04-06 01:41:00,31.5,13.1,29.88,NNE,16,3.0,16.0,46,0.00,,SCT060,0.00,0.00,VWS V14.01,2013-04-06 05:41:00,
2013-04-06 01:51:00,31.2,13.3,29.88,North,356,6.0,17.0,47,0.00,,SCT060,0.00,0.00,VWS V14.01,2013-04-06 05:51:00,
2013-04-06 02:01:00,31.0,14.1,29.88,NW,307,2.0,17.0,49,0.00,,SCT060,0.00,0.00,VWS V14.01,2013-04-06 06:01:00,
2013-04-06 02:11:00,30.7,13.8,29.88,NW,308,4.0,13.0,49,0.00,,SCT060,0.00,0.00,VWS V14.01,2013-04-06 06:11:00,
2013-04-06 02:21:00,30.6,14.2,29.88,NE,37,5.0,10.0,50,0.00,,SCT060,0.00,0.00,VWS V14.01,2013-04-06 06:21:00,
2013-04-06 02:31:00,30.4,15.3,29.89,NNE,22,3.0,18.0,53,0.00,,SCT060,0.00,0.00,VWS V14.01,2013-04-06 06:31:00,
2013-04-06 02:40:00,30.1,16.7,29.89,NNW,328,2.0,19.0,57,0.00,,SCT060,0.00,0.00,VWS V14.01,2013-04-06 06:40:00,
2013-04-06 02:51:00,29.7,16.4,29.89,NW,312,5.0,16.0,57,0.00,,SCT060,0.00,0.00,VWS V14.01,2013-04-06 06:51:00,
2013-04-06 03:00:00,29.5,16.6,29.90,NNW,341,4.0,13.0,58,0.00,,SCT060,0.00,0.00,VWS V14.01,2013-04-06 07:00:00,
2013-04-06 03:11:00,29.5,15.8,29.90,WNW,282,18.0,18.0,56,0.00,,BKN050,0.00,0.00,VWS V14.01,2013-04-06 07:11:00,
2013-04-06 03:20:00,29.7,14.2,29.91,NW,323,13.0,18.0,52,0.00,,BKN050,0.00,0.00,VWS V14.01,2013-04-06 07:20:00,
2013-04-06 03:31:00,29.7,9.4,29.92,WNW,302,14.0,19.0,42,0.00,,BKN050,0.00,0.00,VWS V14.01,2013-04-06 07:31:00,
2013-04-06 03:40:00,29.5,6.4,29.92,WNW,300,11.0,25.0,37,0.00,,BKN050,0.00,0.00,VWS V14.01,2013-04-06 07:40:00,
2013-04-06 03:51:00,29.3,8.0,29.92,WNW,282,12.0,24.0,40,0.00,,BKN050,0.00,0.00,VWS V14.01,2013-04-06 07:51:00,
2013-04-06 04:01:00,29.1,7.8,29.93,NNW,330,12.0,22.0,40,0.00,,BKN050,0.00,0.00,VWS V14.01,2013-04-06 08:01:00,
2013-04-06 04:11:00,28.8,8.6,29.93,North,356,5.0,22.0,42,0.00,,SCT050,0.00,0.00,VWS V14.01,2013-04-06 08:11:00,
2013-04-06 04:21:00,28.5,8.3,29.95,NNW,343,6.0,12.0,42,0.00,,SCT050,0.00,0.00,VWS V14.01,2013-04-06 08:21:00,
2013-04-06 04:31:00,28.2,9.6,29.96,NW,309,4.0,20.0,45,0.00,,SCT050,0.00,0.00,VWS V14.01,2013-04-06 08:31:00,
2013-04-06 04:40:00,28.2,9.1,29.96,WNW,296,7.0,21.0,44,0.00,,CLR,0.00,0.00,VWS V14.01,2013-04-06 08:40:00,
2013-04-06 04:50:00,28.1,8.0,29.97,NNE,13,7.0,20.0,42,0.00,,CLR,0.00,0.00,VWS V14.01,2013-04-06 08:50:00,
2013-04-06 05:01:00,28.2,7.5,29.98,North,1,11.0,24.0,41,0.00,,CLR,0.00,0.00,VWS V14.01,2013-04-06 09:01:00,
2013-04-06 05:11:00,28.1,10.0,29.98,North,1,2.0,16.0,46,0.00,,FEW050,0.00,0.00,VWS V14.01,2013-04-06 09:11:00,
2013-04-06 05:21:00,27.5,11.3,30.00,WNW,293,14.0,20.0,50,0.00,,FEW050,0.00,0.00,VWS V14.01,2013-04-06 09:21:00,
2013-04-06 05:30:00,27.0,11.3,30.02,NNE,31,4.0,29.0,51,0.00,,FEW050,0.00,0.00,VWS V14.01,2013-04-06 09:30:00,
2013-04-06 05:41:00,26.4,9.4,30.02,WNW,303,13.0,23.0,48,0.00,,BKN050,0.00,0.00,VWS V14.01,2013-04-06 09:41:00,
2013-04-06 05:51:00,26.0,8.1,30.03,NW,324,8.0,25.0,46,0.00,,BKN050,0.00,0.00,VWS V14.01,2013-04-06 09:51:00,
2013-04-06 06:11:00,25.1,6.3,30.05,North,359,12.0,20.0,44,0.00,,OVC060,0.00,0.00,VWS V14.01,2013-04-06 10:11:00,
2013-04-06 06:21:00,25.0,7.2,30.05,North,0,7.0,17.0,46,0.00,,OVC060,0.00,0.00,VWS V14.01,2013-04-06 10:21:00,
2013-04-06 06:30:00,24.8,7.0,30.07,North,1,11.0,24.0,46,0.00,,OVC060,0.00,11.00,VWS V14.01,2013-04-06 10:30:00,
2013-04-06 06:41:00,24.7,6.4,30.07,NNW,348,22.0,25.0,45,0.00,,FEW050,0.00,14.00,VWS V14.01,2013-04-06 10:41:00,
2013-04-06 06:51:00,24.7,6.9,30.08,NNE,32,5.0,24.0,46,0.00,,FEW050,0.00,18.00,VWS V14.01,2013-04-06 10:51:00,
2013-04-06 07:11:00,24.7,6.4,30.08,NNW,331,10.0,23.0,45,0.00,,FEW050,0.00,25.00,VWS V14.01,2013-04-06 11:11:00,
2013-04-06 07:20:00,24.7,6.4,30.09,North,7,8.0,22.0,45,0.00,,FEW050,0.00,30.00,VWS V14.01,2013-04-06 11:20:00,
2013-04-06 07:31:00,24.8,6.0,30.10,NNW,342,5.0,28.0,44,0.00,,FEW050,0.00,100.00,VWS V14.01,2013-04-06 11:31:00,
2013-04-06 07:41:00,25.0,5.7,30.10,NW,326,7.0,22.0,43,0.00,,CLR,0.00,60.00,VWS V14.01,2013-04-06 11:41:00,
2013-04-06 07:51:00,25.1,5.2,30.11,NW,308,13.0,18.0,42,0.00,,CLR,0.00,211.00,VWS V14.01,2013-04-06 11:51:00,
2013-04-06 08:01:00,25.1,4.2,30.11,NW,306,11.0,20.0,40,0.00,,CLR,0.00,267.00,VWS V14.01,2013-04-06 12:01:00,
2013-04-06 08:11:00,25.3,3.8,30.11,North,351,20.0,25.0,39,0.00,,CLR,0.00,241.00,VWS V14.01,2013-04-06 12:11:00,
2013-04-06 08:21:00,25.4,2.8,30.12,North,1,14.0,27.0,37,0.00,,CLR,0.00,98.00,VWS V14.01,2013-04-06 12:21:00,
2013-04-06 08:31:00,25.6,2.4,30.13,NNE,15,11.0,28.0,36,0.00,,CLR,0.00,237.00,VWS V14.01,2013-04-06 12:31:00,
2013-04-06 08:40:00,25.8,2.5,30.13,NNE,13,4.0,26.0,36,0.00,,CLR,0.00,100.00,VWS V14.01,2013-04-06 12:40:00,
2013-04-06 08:51:00,26.0,2.7,30.13,West,279,10.0,25.0,36,0.00,,CLR,0.00,250.00,VWS V14.01,2013-04-06 12:51:00,
2013-04-06 09:00:00,26.3,3.0,30.13,NNW,338,13.0,33.0,36,0.00,,CLR,0.00,60.00,VWS V14.01,2013-04-06 13:00:00,
2013-04-06 09:10:00,26.4,3.7,30.13,NNW,343,6.0,23.0,37,0.00,,CLR,0.00,51.00,VWS V14.01,2013-04-06 13:10:00,
2013-04-06 09:21:00,26.6,3.3,30.13,NW,318,18.0,24.0,36,0.00,,CLR,0.00,63.00,VWS V14.01,2013-04-06 13:21:00,
2013-04-06 09:31:00,27.3,4.5,30.15,NNW,346,16.0,20.0,37,0.00,,CLR,0.00,93.00,VWS V14.01,2013-04-06 13:31:00,
2013-04-06 09:41:00,27.6,3.5,30.15,NW,315,11.0,24.0,35,0.00,,CLR,0.00,53.00,VWS V14.01,2013-04-06 13:41:00,
2013-04-06 09:51:00,27.8,3.7,30.15,WNW,301,8.0,24.0,35,0.00,,CLR,0.00,213.00,VWS V14.01,2013-04-06 13:51:00,
2013-04-06 10:11:00,28.7,2.6,30.15,ENE,58,12.0,29.0,32,0.00,,CLR,0.00,160.00,VWS V14.01,2013-04-06 14:11:00,
2013-04-06 10:20:00,28.8,3.3,30.16,WNW,295,13.0,26.0,33,0.00,,CLR,0.00,111.00,VWS V14.01,2013-04-06 14:20:00,
2013-04-06 10:31:00,29.3,1.7,30.16,West,280,19.0,24.0,30,0.00,,CLR,0.00,301.00,VWS V14.01,2013-04-06 14:31:00,
2013-04-06 10:40:00,29.5,0.4,30.16,NW,316,6.0,21.0,28,0.00,,CLR,0.00,427.00,VWS V14.01,2013-04-06 14:40:00,
2013-04-06 10:51:00,30.1,0.9,30.17,NNW,342,10.0,25.0,28,0.00,,CLR,0.00,478.00,VWS V14.01,2013-04-06 14:51:00,
2013-04-06 11:01:00,30.4,1.2,30.18,WNW,303,17.0,18.0,28,0.00,,CLR,0.00,740.00,VWS V14.01,2013-04-06 15:01:00,
2013-04-06 11:11:00,30.9,0.1,30.18,North,7,5.0,21.0,26,0.00,,CLR,0.00,802.00,VWS V14.01,2013-04-06 15:11:00,
2013-04-06 11:21:00,31.9,0.1,30.18,NE,41,21.0,22.0,25,0.00,,CLR,0.00,821.00,VWS V14.01,2013-04-06 15:21:00,
2013-04-06 11:30:00,31.8,0.0,30.18,WNW,302,19.0,22.0,25,0.00,,CLR,0.00,833.00,VWS V14.01,2013-04-06 15:30:00,
2013-04-06 11:41:00,32.1,0.3,30.18,West,274,21.0,23.0,25,0.00,,CLR,0.00,846.00,VWS V14.01,2013-04-06 15:41:00,
2013-04-06 11:51:00,32.9,1.8,30.18,NW,309,16.0,24.0,26,0.00,,CLR,0.00,856.00,VWS V14.01,2013-04-06 15:51:00,
2013-04-06 12:01:00,33.2,1.2,30.19,West,269,6.0,25.0,25,0.00,,CLR,0.00,861.00,VWS V14.01,2013-04-06 16:01:00,
2013-04-06 12:11:00,33.5,-0.3,30.19,WNW,299,13.0,24.0,23,0.00,,CLR,0.00,870.00,VWS V14.01,2013-04-06 16:11:00,
2013-04-06 12:21:00,34.3,0.4,30.19,North,349,2.0,22.0,23,0.00,,CLR,0.00,875.00,VWS V14.01,2013-04-06 16:21:00,
2013-04-06 12:31:00,34.3,1.3,30.19,West,278,16.0,24.0,24,0.00,,CLR,0.00,875.00,VWS V14.01,2013-04-06 16:31:00,
2013-04-06 12:40:00,34.4,1.4,30.19,West,276,3.0,23.0,24,0.00,,CLR,0.00,877.00,VWS V14.01,2013-04-06 16:40:00,
2013-04-06 12:51:00,35.5,2.3,30.18,NW,317,9.0,19.0,24,0.00,,CLR,0.00,872.00,VWS V14.01,2013-04-06 16:51:00,
2013-04-06 13:00:00,36.0,4.4,30.18,NW,306,19.0,31.0,26,0.00,,CLR,0.00,872.00,VWS V14.01,2013-04-06 17:00:00,
2013-04-06 13:10:00,36.8,4.3,30.18,North,356,14.0,24.0,25,0.00,,CLR,0.00,868.00,VWS V14.01,2013-04-06 17:10:00,
2013-04-06 13:21:00,36.8,2.5,30.18,WNW,283,15.0,24.0,23,0.00,,CLR,0.00,865.00,VWS V14.01,2013-04-06 17:21:00,
2013-04-06 13:31:00,36.6,2.3,30.18,North,359,12.0,24.0,23,0.00,,CLR,0.00,854.00,VWS V14.01,2013-04-06 17:31:00,
2013-04-06 13:41:00,37.3,2.9,30.18,West,281,11.0,29.0,23,0.00,,CLR,0.00,849.00,VWS V14.01,2013-04-06 17:41:00,
2013-04-06 13:51:00,37.5,2.1,30.19,North,0,2.0,25.0,22,0.00,,CLR,0.00,835.00,VWS V14.01,2013-04-06 17:51:00,
2013-04-06 14:01:00,37.2,0.9,30.19,North,356,10.0,18.0,21,0.00,,CLR,0.00,821.00,VWS V14.01,2013-04-06 18:01:00,
2013-04-06 14:11:00,37.2,0.9,30.19,West,261,11.0,14.0,21,0.00,,CLR,0.00,729.00,VWS V14.01,2013-04-06 18:11:00,
2013-04-06 14:21:00,38.3,1.8,30.19,WNW,290,17.0,28.0,21,0.00,,CLR,0.00,629.00,VWS V14.01,2013-04-06 18:21:00,
2013-04-06 14:31:00,38.5,2.0,30.19,WSW,239,15.0,22.0,21,0.00,,CLR,0.00,682.00,VWS V14.01,2013-04-06 18:31:00,
2013-04-06 14:41:00,38.8,3.2,30.19,WSW,239,15.0,15.0,22,0.00,,CLR,0.00,758.00,VWS V14.01,2013-04-06 18:41:00,
2013-04-06 14:51:00,39.1,1.4,30.19,WSW,239,15.0,15.0,20,0.00,,CLR,0.00,740.00,VWS V14.01,2013-04-06 18:51:00,
2013-04-06 15:01:00,38.9,2.3,30.19,WSW,239,15.0,15.0,21,0.00,,CLR,0.00,717.00,VWS V14.01,2013-04-06 19:01:00,
2013-04-06 15:11:00,38.6,1.0,30.19,WSW,239,15.0,15.0,20,0.00,,CLR,0.00,652.00,VWS V14.01,2013-04-06 19:11:00,
2013-04-06 15:31:00,38.9,1.3,30.18,WSW,239,15.0,15.0,20,0.00,,CLR,0.00,504.00,VWS V14.01,2013-04-06 19:31:00,
2013-04-06 15:41:00,39.3,0.5,30.18,WSW,239,15.0,15.0,19,0.00,,CLR,0.00,545.00,VWS V14.01,2013-04-06 19:41:00,
2013-04-06 15:51:00,39.8,2.0,30.18,WSW,239,15.0,15.0,20,0.00,,CLR,0.00,589.00,VWS V14.01,2013-04-06 19:51:00,
2013-04-06 16:01:00,40.1,2.3,30.18,WSW,239,15.0,15.0,20,0.00,,CLR,0.00,568.00,VWS V14.01,2013-04-06 20:01:00,
2013-04-06 16:11:00,39.9,-0.2,30.18,WSW,239,15.0,15.0,18,0.00,,CLR,0.00,524.00,VWS V14.01,2013-04-06 20:11:00,
2013-04-06 16:21:00,39.5,-0.5,30.18,WSW,239,15.0,15.0,18,0.00,,CLR,0.00,461.00,VWS V14.01,2013-04-06 20:21:00,
2013-04-06 16:31:00,40.1,2.3,30.18,WSW,239,15.0,15.0,20,0.00,,CLR,0.00,406.00,VWS V14.01,2013-04-06 20:31:00,
2013-04-06 16:41:00,40.1,1.2,30.18,WSW,239,15.0,15.0,19,0.00,,CLR,0.00,366.00,VWS V14.01,2013-04-06 20:41:00,
2013-04-06 16:51:00,40.3,1.3,30.18,WSW,239,15.0,15.0,19,0.00,,CLR,0.00,343.00,VWS V14.01,2013-04-06 20:51:00,
2013-04-06 17:01:00,40.1,0.0,30.19,WSW,239,15.0,15.0,18,0.00,,CLR,0.00,332.00,VWS V14.01,2013-04-06 21:01:00,
2013-04-06 17:11:00,40.1,3.3,30.19,WSW,239,15.0,15.0,21,0.00,,CLR,0.00,323.00,VWS V14.01,2013-04-06 21:11:00,
2013-04-06 17:21:00,40.1,0.0,30.20,WSW,239,15.0,15.0,18,0.00,,CLR,0.00,301.00,VWS V14.01,2013-04-06 21:21:00,
2013-04-06 17:31:00,39.8,-0.2,30.21,NNE,23,9.0,15.0,18,0.00,,CLR,0.00,248.00,VWS V14.01,2013-04-06 21:31:00,
2013-04-06 17:41:00,39.9,1.0,30.21,NW,313,11.0,12.0,19,0.00,,CLR,0.00,265.00,VWS V14.01,2013-04-06 21:41:00,
2013-04-06 17:51:00,40.1,3.3,30.22,NW,313,9.0,15.0,21,0.00,,CLR,0.00,207.00,VWS V14.01,2013-04-06 21:51:00,
2013-04-06 18:01:00,39.6,3.9,30.22,WNW,301,13.0,13.0,22,0.00,,CLR,0.00,172.00,VWS V14.01,2013-04-06 22:01:00,
2013-04-06 18:11:00,39.3,2.6,30.22,WNW,285,10.0,15.0,21,0.00,,CLR,0.00,123.00,VWS V14.01,2013-04-06 22:11:00,
2013-04-06 18:21:00,38.9,4.3,30.23,WNW,292,10.0,14.0,23,0.00,,CLR,0.00,51.00,VWS V14.01,2013-04-06 22:21:00,
2013-04-06 18:31:00,38.6,3.0,30.24,NW,306,0.0,12.0,22,0.00,,CLR,0.00,33.00,VWS V14.01,2013-04-06 22:31:00,
2013-04-06 18:41:00,38.3,2.8,30.24,WNW,300,6.0,12.0,22,0.00,,CLR,0.00,26.00,VWS V14.01,2013-04-06 22:41:00,
2013-04-06 18:51:00,38.2,1.7,30.24,WNW,301,6.0,12.0,21,0.00,,CLR,0.00,21.00,VWS V14.01,2013-04-06 22:51:00,
2013-04-06 19:01:00,37.9,2.5,30.25,WNW,284,2.0,11.0,22,0.00,,CLR,0.00,12.00,VWS V14.01,2013-04-06 23:01:00,
2013-04-06 19:11:00,37.5,4.0,30.25,NW,306,3.0,5.0,24,0.00,,CLR,0.00,7.00,VWS V14.01,2013-04-06 23:11:00,
2013-04-06 19:21:00,37.2,4.6,30.25,NW,306,2.0,6.0,25,0.00,,CLR,0.00,0.00,VWS V14.01,2013-04-06 23:21:00,
2013-04-06 19:31:00,36.6,5.8,30.26,NW,306,5.0,6.0,27,0.00,,CLR,0.00,0.00,VWS V14.01,2013-04-06 23:31:00,
2013-04-06 19:41:00,36.3,3.9,30.26,WNW,295,3.0,7.0,25,0.00,,CLR,0.00,0.00,VWS V14.01,2013-04-06 23:41:00,
2013-04-06 19:51:00,35.0,6.0,30.26,WNW,295,2.0,5.0,29,0.00,,CLR,0.00,0.00,VWS V14.01,2013-04-06 23:51:00,
2013-04-06 20:01:00,34.0,4.3,30.27,WNW,295,1.0,3.0,28,0.00,,CLR,0.00,0.00,VWS V14.01,2013-04-07 00:01:00,
2013-04-06 20:11:00,32.7,4.7,30.27,WNW,295,3.0,3.0,30,0.00,,CLR,0.00,0.00,VWS V14.01,2013-04-07 00:11:00,
2013-04-06 20:21:00,31.6,6.5,30.28,WNW,295,0.0,3.0,34,0.00,,CLR,0.00,0.00,VWS V14.01,2013-04-07 00:21:00,
2013-04-06 20:31:00,31.0,10.1,30.28,WNW,295,0.0,0.0,41,0.00,,CLR,0.00,0.00,VWS V14.01,2013-04-07 00:31:00,
2013-04-06 20:41:00,30.4,6.0,30.28,WNW,295,0.0,0.0,35,0.00,,CLR,0.00,0.00,VWS V14.01,2013-04-07 00:41:00,
2013-04-06 20:51:00,30.3,7.8,30.29,WNW,295,0.0,1.0,38,0.00,,CLR,0.00,0.00,VWS V14.01,2013-04-07 00:51:00,
2013-04-06 21:01:00,29.8,8.4,30.30,WNW,295,3.0,4.0,40,0.00,,CLR,0.00,0.00,VWS V14.01,2013-04-07 01:01:00,
2013-04-06 21:11:00,29.5,9.8,30.30,WNW,295,0.0,3.0,43,0.00,,CLR,0.00,0.00,VWS V14.01,2013-04-07 01:11:00,
2013-04-06 21:21:00,29.4,7.5,30.30,WNW,295,0.0,1.0,39,0.00,,CLR,0.00,0.00,VWS V14.01,2013-04-07 01:21:00,
2013-04-06 21:31:00,29.0,6.6,30.30,WNW,295,0.0,3.0,38,0.00,,CLR,0.00,0.00,VWS V14.01,2013-04-07 01:31:00,
2013-04-06 21:41:00,29.0,7.2,30.30,WNW,295,0.0,0.0,39,0.00,,CLR,0.00,0.00,VWS V14.01,2013-04-07 01:41:00,
2013-04-06 21:51:00,29.0,4.8,30.30,WNW,295,0.0,0.0,35,0.00,,CLR,0.00,0.00,VWS V14.01,2013-04-07 01:51:00,
2013-04-06 22:01:00,28.8,4.0,30.31,WNW,295,1.0,2.0,34,0.00,,CLR,0.00,0.00,VWS V14.01,2013-04-07 02:01:00,
2013-04-06 22:11:00,28.2,8.6,30.31,WNW,295,0.0,3.0,43,0.00,,CLR,0.00,0.00,VWS V14.01,2013-04-07 02:11:00,
2013-04-06 22:21:00,28.5,5.6,30.31,WNW,295,0.0,0.0,37,0.00,,CLR,0.00,0.00,VWS V14.01,2013-04-07 02:21:00,
2013-04-06 22:31:00,28.2,8.6,30.31,WNW,295,0.0,0.0,43,0.00,,CLR,0.00,0.00,VWS V14.01,2013-04-07 02:31:00,
2013-04-06 22:41:00,28.1,5.8,30.31,WNW,295,2.0,2.0,38,0.00,,CLR,0.00,0.00,VWS V14.01,2013-04-07 02:41:00,
2013-04-06 22:51:00,27.9,7.8,30.30,WNW,295,0.0,2.0,42,0.00,,CLR,0.00,0.00,VWS V14.01,2013-04-07 02:51:00,
2013-04-06 23:01:00,27.6,7.5,30.31,WNW,295,0.0,0.0,42,0.00,,CLR,0.00,0.00,VWS V14.01,2013-04-07 03:01:00,
2013-04-06 23:11:00,27.6,6.4,30.31,WNW,295,0.0,0.0,40,0.00,,CLR,0.00,0.00,VWS V14.01,2013-04-07 03:11:00,
2013-04-06 23:21:00,27.3,6.2,30.31,WNW,295,3.0,3.0,40,0.00,,CLR,0.00,0.00,VWS V14.01,2013-04-07 03:21:00,
2013-04-06 23:31:00,27.0,9.0,30.30,WNW,295,0.0,3.0,46,0.00,,CLR,0.00,0.00,VWS V14.01,2013-04-07 03:31:00,
2013-04-06 23:51:00,26.9,7.9,30.29,WNW,295,2.0,2.0,44,0.00,,CLR,0.00,0.00,VWS V14.01,2013-04-07 03:51:00,